Time;durP1;ratioP1;P1;durP2;ratioP2;P2;SDS_P1;SDS_P2;PMS_P1;PMS_P2;Temp;Humidity;BMP_temperature;BMP_pressure;BME280_temperature;BME280_humidity;BME280_pressure;Samples;Min_cycle;Max_cycle;Signal;HPM_P1;HPM_P2
2022/01/17 00:01:46;;;;;;;;;;;24.00;53.50;;;;;;1563113;75;1070;-70
2022/01/17 00:03:48;;;;;;;;;;;23.90;53.50;;;;;;1563136;75;708;-70
2022/01/17 00:05:50;;;;;;;;;;;23.90;53.50;;;;;;1561727;76;650;-71
2022/01/17 00:07:52;;;;;;;;;;;23.90;53.60;;;;;;1563169;76;708;-71
2022/01/17 00:09:54;;;;;;;;;;;23.90;53.50;;;;;;1563215;75;1130;-70
2022/01/17 00:11:56;;;;;;;;;;;24.00;53.60;;;;;;1563201;76;743;-70
2022/01/17 00:13:58;;;;;;;;;;;24.00;53.50;;;;;;1551232;76;1915;-70
2022/01/17 00:16:13;;;;;;;;;;;23.90;53.50;;;;;;1535519;77;726;-72
2022/01/17 00:20:25;;;;;;;;;;;23.90;53.50;;;;;;1536529;76;1161;-73
2022/01/17 00:22:20;;;;;;;;;;;23.90;53.50;;;;;;1533924;77;1550;-72
2022/01/17 00:24:22;;;;;;;;;;;24.00;53.50;;;;;;1535418;77;725;-71
2022/01/17 00:26:24;;;;;;;;;;;24.00;53.60;;;;;;1535692;76;722;-72
2022/01/17 00:28:26;;;;;;;;;;;23.90;53.40;;;;;;1542138;76;729;-72
2022/01/17 00:30:28;;;;;;;;;;;23.90;53.50;;;;;;1563133;75;1129;-72
2022/01/17 00:32:31;;;;;;;;;;;23.90;53.50;;;;;;1563155;76;719;-71
2022/01/17 00:34:33;;;;;;;;;;;23.90;53.40;;;;;;1563175;75;1928;-72
2022/01/17 00:36:34;;;;;;;;;;;23.90;53.50;;;;;;1562344;76;740;-72
2022/01/17 00:38:36;;;;;;;;;;;24.00;53.50;;;;;;1563244;76;763;-72
2022/01/17 00:40:40;;;;;;;;;;;23.90;53.50;;;;;;1572174;75;1158;-71
2022/01/17 00:42:42;;;;;;;;;;;23.90;53.50;;;;;;1588663;75;648;-72
2022/01/17 00:44:44;;;;;;;;;;;23.90;53.50;;;;;;1588786;75;711;-72
2022/01/17 00:46:46;;;;;;;;;;;23.90;53.60;;;;;;1571645;75;728;-72
2022/01/17 00:48:48;;;;;;;;;;;23.90;53.50;;;;;;1561764;75;743;-72
2022/01/17 00:50:50;;;;;;;;;;;23.90;53.50;;;;;;1561606;75;1154;-71
2022/01/17 00:52:52;;;;;;;;;;;23.90;53.50;;;;;;1561542;75;700;-72
2022/01/17 00:54:54;;;;;;;;;;;23.90;53.50;;;;;;1561587;75;2109;-71
2022/01/17 00:56:56;;;;;;;;;;;23.90;53.40;;;;;;1561542;76;798;-67
2022/01/17 00:58:58;;;;;;;;;;;23.90;53.50;;;;;;1561347;75;683;-70
2022/01/17 01:00:59;;;;;;;;;;;23.90;53.40;;;;;;1563232;75;1075;-71
2022/01/17 01:03:01;;;;;;;;;;;23.90;53.40;;;;;;1563096;75;671;-72
2022/01/17 01:05:03;;;;;;;;;;;23.90;53.40;;;;;;1563247;75;711;-71
2022/01/17 01:07:05;;;;;;;;;;;23.90;53.50;;;;;;1555995;75;796;-71
2022/01/17 01:09:07;;;;;;;;;;;23.90;53.40;;;;;;1563089;75;715;-70
2022/01/17 01:11:09;;;;;;;;;;;23.90;53.40;;;;;;1563282;76;1165;-71
2022/01/17 01:13:11;;;;;;;;;;;23.90;53.40;;;;;;1562938;75;1937;-71
2022/01/17 01:15:18;;;;;;;;;;;23.90;53.40;;;;;;1562750;76;547;-71
2022/01/17 01:17:34;;;;;;;;;;;23.90;53.40;;;;;;1562542;76;1365;-71
2022/01/17 01:19:40;;;;;;;;;;;23.90;53.40;;;;;;1559758;75;1633;-71
2022/01/17 01:21:47;;;;;;;;;;;23.90;53.40;;;;;;1561691;75;1115;-71
2022/01/17 01:28:26;;;;;;;;;;;23.90;53.40;;;;;;1577181;75;1655;-71
2022/01/17 01:30:29;;;;;;;;;;;23.80;53.30;;;;;;1576334;75;1207;-71
2022/01/17 01:32:39;;;;;;;;;;;23.90;53.40;;;;;;1589515;75;764;-71
2022/01/17 01:34:42;;;;;;;;;;;23.90;53.40;;;;;;1587074;75;1919;-71
2022/01/17 01:36:41;;;;;;;;;;;23.90;53.40;;;;;;1587862;75;1168;-72
2022/01/17 01:38:43;;;;;;;;;;;23.90;53.40;;;;;;1565460;75;726;-72
2022/01/17 01:40:45;;;;;;;;;;;23.90;53.50;;;;;;1561767;75;1125;-71
2022/01/17 01:42:47;;;;;;;;;;;23.90;53.50;;;;;;1557344;75;752;-71
2022/01/17 01:44:52;;;;;;;;;;;23.90;53.50;;;;;;1562798;75;760;-69
2022/01/17 01:46:53;;;;;;;;;;;23.90;53.50;;;;;;1560522;75;1606;-72
2022/01/17 01:48:55;;;;;;;;;;;23.90;53.50;;;;;;1560689;75;776;-71
2022/01/17 01:50:57;;;;;;;;;;;23.80;53.40;;;;;;1561692;75;1158;-72
2022/01/17 01:52:59;;;;;;;;;;;23.90;53.50;;;;;;1561563;75;726;-72
2022/01/17 01:55:01;;;;;;;;;;;23.90;53.50;;;;;;1561600;75;1940;-71
2022/01/17 01:57:03;;;;;;;;;;;23.90;53.50;;;;;;1561821;75;699;-72
2022/01/17 01:59:05;;;;;;;;;;;23.80;53.40;;;;;;1563356;76;719;-71
2022/01/17 02:01:07;;;;;;;;;;;23.90;53.60;;;;;;1563215;76;1143;-71
2022/01/17 02:03:09;;;;;;;;;;;23.90;53.50;;;;;;1562334;76;745;-71
2022/01/17 02:05:11;;;;;;;;;;;23.90;53.50;;;;;;1561010;76;701;-72
2022/01/17 02:07:13;;;;;;;;;;;23.80;53.40;;;;;;1563249;76;755;-71
2022/01/17 02:09:15;;;;;;;;;;;23.90;53.50;;;;;;1563256;76;731;-71
2022/01/17 02:11:17;;;;;;;;;;;23.90;53.40;;;;;;1563273;75;1145;-71
2022/01/17 02:13:19;;;;;;;;;;;23.90;53.40;;;;;;1552341;74;2109;-70
2022/01/17 02:15:20;;;;;;;;;;;23.90;53.40;;;;;;1526748;77;1966;-70
2022/01/17 02:17:24;;;;;;;;;;;23.90;53.40;;;;;;1520636;77;811;-70
2022/01/17 02:19:28;;;;;;;;;;;23.90;53.40;;;;;;1530008;77;773;-69
2022/01/17 02:21:49;;;;;;;;;;;23.90;53.40;;;;;;1535225;76;1783;-72
2022/01/17 02:23:51;;;;;;;;;;;23.80;53.40;;;;;;1505817;77;1222;-74
2022/01/17 02:25:55;;;;;;;;;;;23.90;53.40;;;;;;1491985;79;784;-70
2022/01/17 02:27:57;;;;;;;;;;;23.80;53.40;;;;;;1491649;80;1016;-74
2022/01/17 02:29:59;;;;;;;;;;;23.80;53.40;;;;;;1518220;78;734;-76
2022/01/17 02:32:00;;;;;;;;;;;23.90;53.40;;;;;;1500299;78;940;-73
2022/01/17 02:34:03;;;;;;;;;;;23.90;53.40;;;;;;1494479;78;1946;-73
2022/01/17 02:36:05;;;;;;;;;;;23.80;53.30;;;;;;1509390;77;774;-73
2022/01/17 02:38:07;;;;;;;;;;;23.90;53.40;;;;;;1518192;78;713;-75
2022/01/17 02:40:09;;;;;;;;;;;23.80;53.40;;;;;;1518216;78;732;-72
2022/01/17 02:42:15;;;;;;;;;;;23.90;53.50;;;;;;1518986;78;708;-73
2022/01/17 02:44:15;;;;;;;;;;;23.80;53.40;;;;;;1513679;77;1421;-71
2022/01/17 02:46:26;;;;;;;;;;;23.90;53.50;;;;;;1523305;78;723;-71
2022/01/17 02:48:29;;;;;;;;;;;23.90;53.50;;;;;;1510594;78;784;-70
2022/01/17 02:50:31;;;;;;;;;;;23.80;53.40;;;;;;1512940;78;768;-71
2022/01/17 02:52:33;;;;;;;;;;;23.90;53.60;;;;;;1512937;78;721;-71
2022/01/17 02:54:36;;;;;;;;;;;23.70;53.40;;;;;;1512888;77;1991;-71
2022/01/17 02:56:38;;;;;;;;;;;23.80;53.40;;;;;;1513044;77;738;-71
2022/01/17 02:58:40;;;;;;;;;;;23.80;53.40;;;;;;1538523;77;788;-71
2022/01/17 03:00:42;;;;;;;;;;;23.70;53.40;;;;;;1538529;77;809;-71
2022/01/17 03:02:48;;;;;;;;;;;23.90;53.40;;;;;;1538581;77;748;-72
2022/01/17 03:04:47;;;;;;;;;;;23.80;53.60;;;;;;1537824;76;1474;-71
2022/01/17 03:06:49;;;;;;;;;;;23.80;53.40;;;;;;1536851;77;723;-72
2022/01/17 03:08:51;;;;;;;;;;;23.80;53.40;;;;;;1529113;77;747;-73
2022/01/17 03:10:53;;;;;;;;;;;23.80;53.40;;;;;;1508494;77;799;-71
2022/01/17 03:13:03;;;;;;;;;;;23.80;53.30;;;;;;1511133;78;907;-71
2022/01/17 03:15:05;;;;;;;;;;;23.70;53.20;;;;;;1510136;78;1992;-70
2022/01/17 03:17:08;;;;;;;;;;;23.80;53.20;;;;;;1506131;78;742;-71
2022/01/17 03:19:10;;;;;;;;;;;23.80;53.20;;;;;;1551648;75;740;-73
2022/01/17 03:21:12;;;;;;;;;;;23.70;53.20;;;;;;1581187;75;789;-70
2022/01/17 03:23:14;;;;;;;;;;;23.80;53.20;;;;;;1560936;75;1159;-71
2022/01/17 03:25:16;;;;;;;;;;;23.70;53.20;;;;;;1554428;76;718;-73
2022/01/17 03:27:18;;;;;;;;;;;23.80;53.20;;;;;;1552482;76;655;-72
2022/01/17 03:29:20;;;;;;;;;;;23.80;53.20;;;;;;1553093;76;788;-72
2022/01/17 03:31:22;;;;;;;;;;;23.80;53.20;;;;;;1554140;76;757;-70
2022/01/17 03:33:24;;;;;;;;;;;23.70;53.20;;;;;;1552553;75;1180;-71
2022/01/17 03:35:25;;;;;;;;;;;23.80;53.20;;;;;;1534362;76;1951;-72
2022/01/17 03:37:28;;;;;;;;;;;23.80;53.20;;;;;;1557200;76;712;-72
2022/01/17 03:39:29;;;;;;;;;;;23.80;53.20;;;;;;1554486;76;675;-72
2022/01/17 03:41:31;;;;;;;;;;;23.90;53.30;;;;;;1553587;75;769;-72
2022/01/17 03:43:33;;;;;;;;;;;23.80;53.30;;;;;;1546633;75;1120;-73
2022/01/17 03:45:35;;;;;;;;;;;23.80;53.20;;;;;;1553976;76;741;-74
2022/01/17 03:47:38;;;;;;;;;;;23.80;53.20;;;;;;1554380;76;741;-72
2022/01/17 03:49:40;;;;;;;;;;;23.70;53.20;;;;;;1571672;75;770;-72
2022/01/17 03:51:42;;;;;;;;;;;23.80;53.20;;;;;;1581319;75;727;-74
2022/01/17 03:53:43;;;;;;;;;;;23.80;53.10;;;;;;1581105;74;1126;-72
2022/01/17 03:55:45;;;;;;;;;;;23.80;53.10;;;;;;1581153;75;1934;-71
2022/01/17 03:57:47;;;;;;;;;;;23.90;53.20;;;;;;1560616;75;803;-71
2022/01/17 03:59:49;;;;;;;;;;;23.80;53.10;;;;;;1554504;76;718;-70
2022/01/17 04:01:51;;;;;;;;;;;23.80;53.10;;;;;;1554612;76;707;-71
2022/01/17 04:03:53;;;;;;;;;;;23.90;53.10;;;;;;1554398;75;1136;-72
2022/01/17 04:05:55;;;;;;;;;;;23.90;53.10;;;;;;1554235;76;783;-71
2022/01/17 04:07:57;;;;;;;;;;;23.90;53.10;;;;;;1554545;76;807;-73
2022/01/17 04:09:58;;;;;;;;;;;23.90;53.10;;;;;;1554357;76;782;-71
2022/01/17 04:12:00;;;;;;;;;;;23.90;53.00;;;;;;1554481;76;796;-71
2022/01/17 04:14:02;;;;;;;;;;;23.90;53.00;;;;;;1554222;75;1112;-71
2022/01/17 04:16:04;;;;;;;;;;;24.00;52.90;;;;;;1555913;75;1948;-71
2022/01/17 04:18:07;;;;;;;;;;;24.00;52.90;;;;;;1547488;76;780;-71
2022/01/17 04:20:13;;;;;;;;;;;24.00;52.90;;;;;;1559699;75;604;-71
2022/01/17 04:22:13;;;;;;;;;;;24.00;52.80;;;;;;1542747;76;1013;-71
2022/01/17 04:24:15;;;;;;;;;;;24.00;52.80;;;;;;1549459;75;1172;-71
2022/01/17 04:26:17;;;;;;;;;;;24.00;52.80;;;;;;1540115;76;823;-71
2022/01/17 04:28:19;;;;;;;;;;;24.00;52.80;;;;;;1549427;76;742;-71
2022/01/17 04:30:21;;;;;;;;;;;24.00;52.80;;;;;;1536269;76;800;-71
2022/01/17 04:32:23;;;;;;;;;;;24.00;52.80;;;;;;1549432;76;720;-72
2022/01/17 04:34:25;;;;;;;;;;;24.00;52.70;;;;;;1540070;75;1947;-72
2022/01/17 04:36:27;;;;;;;;;;;24.00;52.70;;;;;;1551806;76;721;-72
2022/01/17 04:38:29;;;;;;;;;;;24.00;52.70;;;;;;1549099;76;726;-71
2022/01/17 04:40:35;;;;;;;;;;;24.10;52.80;;;;;;1552246;76;715;-72
2022/01/17 04:42:42;;;;;;;;;;;24.00;52.60;;;;;;1551618;76;1093;-72
2022/01/17 04:46:59;;;;;;;;;;;24.10;52.70;;;;;;1553049;75;1614;-72
2022/01/17 04:49:01;;;;;;;;;;;24.10;52.70;;;;;;1553412;75;736;-72
2022/01/17 04:51:03;;;;;;;;;;;24.10;52.60;;;;;;1556100;76;723;-72
2022/01/17 04:53:07;;;;;;;;;;;24.10;52.60;;;;;;1548361;76;778;-72
2022/01/17 04:55:09;;;;;;;;;;;24.00;52.50;;;;;;1548392;76;1935;-71
2022/01/17 04:57:12;;;;;;;;;;;24.10;52.60;;;;;;1550822;75;726;-72
2022/01/17 04:59:13;;;;;;;;;;;24.10;52.60;;;;;;1548405;76;778;-72
2022/01/17 05:01:15;;;;;;;;;;;24.00;52.40;;;;;;1548470;76;744;-72
2022/01/17 05:03:19;;;;;;;;;;;24.10;52.60;;;;;;1551216;75;1148;-72
2022/01/17 05:05:21;;;;;;;;;;;24.10;52.60;;;;;;1550989;76;714;-71
2022/01/17 05:07:22;;;;;;;;;;;24.10;52.60;;;;;;1552298;76;813;-71
2022/01/17 05:09:24;;;;;;;;;;;24.10;52.60;;;;;;1548280;76;773;-72
2022/01/17 05:11:29;;;;;;;;;;;24.10;52.60;;;;;;1548537;76;783;-71
2022/01/17 05:13:33;;;;;;;;;;;24.00;52.50;;;;;;1553465;75;1692;-71
2022/01/17 05:15:37;;;;;;;;;;;24.00;52.50;;;;;;1547824;76;1931;-72
2022/01/17 05:17:43;;;;;;;;;;;24.10;52.60;;;;;;1550825;76;1667;-71
2022/01/17 05:19:49;;;;;;;;;;;24.10;52.60;;;;;;1554031;76;1482;-71
2022/01/17 05:21:51;;;;;;;;;;;24.10;52.60;;;;;;1545537;76;693;-73
2022/01/17 05:23:53;;;;;;;;;;;24.10;52.60;;;;;;1548422;75;1114;-72
2022/01/17 05:25:55;;;;;;;;;;;24.10;52.60;;;;;;1551257;76;710;-72
2022/01/17 05:27:57;;;;;;;;;;;24.20;52.60;;;;;;1551191;76;756;-72
2022/01/17 05:29:58;;;;;;;;;;;24.10;52.60;;;;;;1551419;76;760;-73
2022/01/17 05:32:00;;;;;;;;;;;24.20;52.60;;;;;;1553286;76;656;-72
2022/01/17 05:34:02;;;;;;;;;;;24.20;52.50;;;;;;1553152;75;1207;-74
2022/01/17 05:36:04;;;;;;;;;;;24.20;52.50;;;;;;1551834;76;1939;-73
2022/01/17 05:38:06;;;;;;;;;;;24.20;52.50;;;;;;1552120;76;741;-74
2022/01/17 05:40:08;;;;;;;;;;;24.10;52.40;;;;;;1553628;76;787;-74
2022/01/17 05:42:14;;;;;;;;;;;24.20;52.40;;;;;;1551995;76;729;-73
2022/01/17 05:44:14;;;;;;;;;;;24.20;52.40;;;;;;1553250;75;1145;-73
2022/01/17 05:46:16;;;;;;;;;;;24.20;52.40;;;;;;1554533;75;780;-73
2022/01/17 05:48:17;;;;;;;;;;;24.20;52.40;;;;;;1552896;76;746;-73
2022/01/17 05:50:19;;;;;;;;;;;24.10;52.30;;;;;;1552514;75;760;-75
2022/01/17 05:52:21;;;;;;;;;;;24.20;52.30;;;;;;1544752;76;1339;-74
2022/01/17 05:54:23;;;;;;;;;;;24.20;52.40;;;;;;1549284;75;1148;-73
2022/01/17 05:56:25;;;;;;;;;;;24.20;52.40;;;;;;1551036;76;1943;-73
2022/01/17 05:58:27;;;;;;;;;;;24.20;52.40;;;;;;1553539;76;757;-73
2022/01/17 06:00:29;;;;;;;;;;;24.20;52.30;;;;;;1550968;76;832;-73
2022/01/17 06:02:30;;;;;;;;;;;24.20;52.30;;;;;;1546749;76;751;-73
2022/01/17 06:04:32;;;;;;;;;;;24.20;52.30;;;;;;1550890;75;1179;-77
2022/01/17 06:06:34;;;;;;;;;;;24.20;52.30;;;;;;1544737;76;664;-73
2022/01/17 06:08:37;;;;;;;;;;;24.30;52.30;;;;;;1548624;76;779;-73
2022/01/17 06:10:39;;;;;;;;;;;24.20;52.20;;;;;;1554336;76;738;-70
2022/01/17 06:12:41;;;;;;;;;;;24.20;52.10;;;;;;1553792;76;742;-67
2022/01/17 06:14:43;;;;;;;;;;;24.30;52.30;;;;;;1512356;76;1126;-69
2022/01/17 06:16:45;;;;;;;;;;;24.30;52.20;;;;;;1550759;76;1908;-70
2022/01/17 06:18:47;;;;;;;;;;;24.30;52.10;;;;;;1546745;77;699;-72
2022/01/17 06:20:49;;;;;;;;;;;24.30;52.10;;;;;;1561612;76;762;-69
2022/01/17 06:22:51;;;;;;;;;;;24.20;52.00;;;;;;1561883;76;796;-69
2022/01/17 06:24:53;;;;;;;;;;;24.20;52.10;;;;;;1561857;75;1264;-70
2022/01/17 06:26:54;;;;;;;;;;;24.20;52.10;;;;;;1561832;76;734;-69
2022/01/17 06:28:56;;;;;;;;;;;24.20;52.10;;;;;;1568859;75;829;-69
2022/01/17 06:30:58;;;;;;;;;;;24.20;52.10;;;;;;1588878;74;776;-68
2022/01/17 06:33:02;;;;;;;;;;;24.10;52.10;;;;;;1588888;75;723;-68
2022/01/17 06:35:04;;;;;;;;;;;24.20;52.10;;;;;;1588824;73;1138;-71
2022/01/17 06:37:06;;;;;;;;;;;24.10;52.10;;;;;;1588749;75;1969;-67
2022/01/17 06:39:08;;;;;;;;;;;24.10;52.00;;;;;;1541615;75;740;-68
2022/01/17 06:41:10;;;;;;;;;;;24.20;52.00;;;;;;1541072;75;812;-69
2022/01/17 06:43:12;;;;;;;;;;;24.20;52.10;;;;;;1548862;75;1154;-66
2022/01/17 06:45:15;;;;;;;;;;;24.20;52.10;;;;;;1550026;75;777;-70
2022/01/17 06:47:17;;;;;;;;;;;24.20;52.10;;;;;;1567123;75;788;-71
2022/01/17 06:49:19;;;;;;;;;;;24.20;52.10;;;;;;1553407;75;734;-71
2022/01/17 06:51:21;;;;;;;;;;;24.20;52.00;;;;;;1561440;75;797;-70
2022/01/17 06:53:26;;;;;;;;;;;24.10;52.00;;;;;;1553909;74;1142;-69
2022/01/17 06:55:26;;;;;;;;;;;24.10;52.00;;;;;;1547031;75;1941;-69
2022/01/17 06:57:28;;;;;;;;;;;24.10;51.90;;;;;;1562165;75;819;-69
2022/01/17 06:59:30;;;;;;;;;;;24.00;51.80;;;;;;1541223;75;695;-69
2022/01/17 07:01:37;;;;;;;;;;;24.00;51.70;;;;;;1556872;75;746;-72
2022/01/17 07:03:35;;;;;;;;;;;24.00;51.70;;;;;;1556871;75;1638;-69
2022/01/17 07:05:37;;;;;;;;;;;24.00;51.60;;;;;;1554535;75;681;-70
2022/01/17 07:07:39;;;;;;;;;;;24.10;51.80;;;;;;1560495;75;755;-70
2022/01/17 07:09:41;;;;;;;;;;;24.00;51.50;;;;;;1560709;75;743;-69
2022/01/17 07:11:43;;;;;;;;;;;24.00;51.60;;;;;;1562463;75;734;-70
2022/01/17 07:13:45;;;;;;;;;;;24.00;51.60;;;;;;1563275;75;1132;-73
2022/01/17 07:15:47;;;;;;;;;;;24.00;51.50;;;;;;1563195;75;1939;-71
2022/01/17 07:17:49;;;;;;;;;;;24.00;51.50;;;;;;1559054;75;724;-70
2022/01/17 07:19:51;;;;;;;;;;;24.00;51.50;;;;;;1560832;75;754;-73
2022/01/17 07:21:53;;;;;;;;;;;24.00;51.40;;;;;;1559668;76;764;-70
2022/01/17 07:23:55;;;;;;;;;;;24.00;51.40;;;;;;1559577;75;1179;-72
2022/01/17 07:25:57;;;;;;;;;;;24.00;51.40;;;;;;1556175;75;785;-69
2022/01/17 07:27:58;;;;;;;;;;;24.00;51.30;;;;;;1560534;75;738;-72
2022/01/17 07:30:00;;;;;;;;;;;24.00;51.00;;;;;;1563093;75;758;-72
2022/01/17 07:32:02;;;;;;;;;;;24.00;50.50;;;;;;1559311;75;654;-72
2022/01/17 07:34:04;;;;;;;;;;;23.90;50.00;;;;;;1561245;75;1148;-69
2022/01/17 07:36:06;;;;;;;;;;;24.00;49.10;;;;;;1557619;75;1924;-71
2022/01/17 07:38:08;;;;;;;;;;;23.80;48.40;;;;;;1560902;76;753;-71
2022/01/17 07:40:11;;;;;;;;;;;23.80;48.20;;;;;;1561126;75;731;-71
2022/01/17 07:42:12;;;;;;;;;;;23.80;47.70;;;;;;1560358;75;747;-74
2022/01/17 07:44:19;;;;;;;;;;;23.70;47.30;;;;;;1561538;75;1124;-72
2022/01/17 07:46:48;;;;;;;;;;;23.70;47.10;;;;;;1560276;76;1493;-71
2022/01/17 07:50:43;;;;;;;;;;;23.70;46.70;;;;;;1560585;75;1627;-71
2022/01/17 07:52:45;;;;;;;;;;;23.70;46.20;;;;;;1560406;76;745;-70
2022/01/17 07:54:47;;;;;;;;;;;23.60;46.10;;;;;;1557913;75;1131;-70
2022/01/17 07:56:49;;;;;;;;;;;23.60;45.80;;;;;;1561152;75;1919;-69
2022/01/17 07:58:51;;;;;;;;;;;23.60;45.40;;;;;;1561281;75;694;-70
2022/01/17 08:00:53;;;;;;;;;;;23.60;45.10;;;;;;1561008;75;716;-70
2022/01/17 08:02:58;;;;;;;;;;;23.50;45.20;;;;;;1561352;75;706;-69
2022/01/17 08:04:58;;;;;;;;;;;23.50;45.30;;;;;;1561263;75;1595;-71
2022/01/17 08:07:00;;;;;;;;;;;23.40;45.10;;;;;;1561232;75;851;-71
2022/01/17 08:09:04;;;;;;;;;;;23.50;45.40;;;;;;1556473;75;693;-71
2022/01/17 08:11:06;;;;;;;;;;;23.30;45.10;;;;;;1561087;75;733;-70
2022/01/17 08:13:09;;;;;;;;;;;23.30;45.00;;;;;;1561327;75;1096;-71
2022/01/17 08:15:11;;;;;;;;;;;23.40;45.00;;;;;;1561728;75;1484;-71
2022/01/17 08:17:13;;;;;;;;;;;23.30;44.80;;;;;;1559531;75;1911;-71
2022/01/17 08:19:15;;;;;;;;;;;23.30;44.70;;;;;;1562953;75;693;-71
2022/01/17 08:21:17;;;;;;;;;;;23.30;44.90;;;;;;1560572;76;697;-71
2022/01/17 08:23:19;;;;;;;;;;;23.30;45.00;;;;;;1561017;75;1170;-71
2022/01/17 08:25:21;;;;;;;;;;;23.30;45.00;;;;;;1560470;75;885;-72
2022/01/17 08:27:23;;;;;;;;;;;23.20;45.20;;;;;;1560770;75;735;-69
2022/01/17 08:29:28;;;;;;;;;;;23.20;45.00;;;;;;1560479;75;738;-70
2022/01/17 08:31:30;;;;;;;;;;;23.30;45.30;;;;;;1560920;75;877;-71
2022/01/17 08:33:31;;;;;;;;;;;23.20;44.70;;;;;;1560934;75;1175;-71
2022/01/17 08:35:33;;;;;;;;;;;23.20;44.90;;;;;;1561017;75;791;-71
2022/01/17 08:37:35;;;;;;;;;;;23.20;44.90;;;;;;1563009;75;2084;-71
2022/01/17 08:39:37;;;;;;;;;;;23.20;45.00;;;;;;1560948;75;804;-71
2022/01/17 08:41:42;;;;;;;;;;;23.20;44.70;;;;;;1561069;75;725;-71
2022/01/17 08:43:43;;;;;;;;;;;23.20;44.70;;;;;;1557982;75;1727;-71
2022/01/17 08:45:45;;;;;;;;;;;23.20;44.90;;;;;;1561305;75;715;-70
2022/01/17 08:47:49;;;;;;;;;;;23.20;44.70;;;;;;1557808;75;749;-70
2022/01/17 08:49:50;;;;;;;;;;;23.20;45.10;;;;;;1537541;73;2089;-68
2022/01/17 08:51:52;;;;;;;;;;;23.20;45.00;;;;;;1539109;76;708;-68
2022/01/17 08:53:54;;;;;;;;;;;23.20;45.00;;;;;;1539839;76;799;-68
2022/01/17 08:55:56;;;;;;;;;;;23.20;45.00;;;;;;1539631;76;708;-69
2022/01/17 08:57:59;;;;;;;;;;;23.10;44.70;;;;;;1539996;76;1908;-67
2022/01/17 09:00:01;;;;;;;;;;;23.20;44.70;;;;;;1559011;76;1142;-70
2022/01/17 09:02:03;;;;;;;;;;;23.10;45.00;;;;;;1562902;75;720;-73
2022/01/17 09:04:05;;;;;;;;;;;23.20;44.80;;;;;;1549945;75;671;-72
2022/01/17 09:06:07;;;;;;;;;;;23.20;44.70;;;;;;1554841;75;703;-70
2022/01/17 09:08:09;;;;;;;;;;;23.10;44.70;;;;;;1546252;76;718;-70
2022/01/17 09:10:11;;;;;;;;;;;23.10;44.30;;;;;;1543630;76;1073;-70
2022/01/17 09:12:14;;;;;;;;;;;23.20;44.50;;;;;;1558552;76;797;-70
2022/01/17 09:14:16;;;;;;;;;;;23.20;44.60;;;;;;1553342;76;706;-71
2022/01/17 09:16:18;;;;;;;;;;;23.10;44.50;;;;;;1529916;76;1935;-74
2022/01/17 09:18:20;;;;;;;;;;;23.10;44.20;;;;;;1541984;76;1130;-70
2022/01/17 09:20:22;;;;;;;;;;;23.10;44.40;;;;;;1535951;76;727;-73
2022/01/17 09:22:24;;;;;;;;;;;23.10;44.20;;;;;;1549406;76;779;-69
2022/01/17 09:24:26;;;;;;;;;;;23.10;44.30;;;;;;1567187;76;729;-71
2022/01/17 09:26:28;;;;;;;;;;;23.10;44.10;;;;;;1545058;76;748;-71
2022/01/17 09:28:30;;;;;;;;;;;23.10;44.00;;;;;;1537910;76;1147;-70
2022/01/17 09:30:31;;;;;;;;;;;23.10;44.20;;;;;;1533745;76;716;-70
2022/01/17 09:32:33;;;;;;;;;;;23.10;44.00;;;;;;1539493;76;680;-70
2022/01/17 09:34:35;;;;;;;;;;;23.10;44.00;;;;;;1539157;76;790;-72
2022/01/17 09:36:37;;;;;;;;;;;23.10;43.80;;;;;;1540427;76;1917;-72
2022/01/17 09:38:39;;;;;;;;;;;23.10;43.90;;;;;;1542149;76;1138;-69
2022/01/17 09:40:41;;;;;;;;;;;23.10;43.80;;;;;;1539708;76;795;-69
2022/01/17 09:42:43;;;;;;;;;;;23.10;43.70;;;;;;1533670;76;733;-71
2022/01/17 09:44:45;;;;;;;;;;;23.10;43.60;;;;;;1539655;76;720;-69
2022/01/17 09:46:52;;;;;;;;;;;23.20;43.50;;;;;;1541874;76;703;-70
2022/01/17 09:48:59;;;;;;;;;;;23.20;43.60;;;;;;1534661;76;1155;-76
2022/01/17 09:51:14;;;;;;;;;;;23.20;43.40;;;;;;1537871;76;1043;-73
2022/01/17 09:53:03;;;;;;;;;;;23.10;43.40;;;;;;1542425;75;1075;-73
2022/01/17 09:55:09;;;;;;;;;;;23.10;43.60;;;;;;1553377;76;684;-69
2022/01/17 09:57:11;;;;;;;;;;;23.10;42.80;;;;;;1539728;76;1916;-70
2022/01/17 09:59:13;;;;;;;;;;;23.20;43.40;;;;;;1537831;76;1155;-69
2022/01/17 10:01:15;;;;;;;;;;;23.20;43.50;;;;;;1568405;76;766;-71
2022/01/17 10:03:17;;;;;;;;;;;23.20;43.70;;;;;;1544703;76;735;-70
2022/01/17 10:05:18;;;;;;;;;;;23.30;43.90;;;;;;1539649;76;732;-69
2022/01/17 10:07:20;;;;;;;;;;;23.30;44.00;;;;;;1548149;76;743;-68
2022/01/17 10:09:24;;;;;;;;;;;23.40;44.10;;;;;;1527474;76;1132;-68
2022/01/17 10:11:26;;;;;;;;;;;23.40;44.10;;;;;;1535526;76;642;-69
2022/01/17 10:13:32;;;;;;;;;;;23.50;44.30;;;;;;1538005;76;1006;-68
2022/01/17 10:15:45;;;;;;;;;;;23.50;44.40;;;;;;1534920;76;776;-68
2022/01/17 10:17:44;;;;;;;;;;;23.60;44.30;;;;;;1534076;76;1937;-68
2022/01/17 10:19:46;;;;;;;;;;;23.60;44.40;;;;;;1535940;76;1158;-68
2022/01/17 10:21:52;;;;;;;;;;;23.60;44.50;;;;;;1519714;76;1256;-69
2022/01/17 10:24:12;;;;;;;;;;;23.60;44.60;;;;;;1529848;76;1545;-68
2022/01/17 10:26:07;;;;;;;;;;;23.70;44.70;;;;;;1530839;77;1676;-71
2022/01/17 10:28:45;;;;;;;;;;;23.60;44.70;;;;;;1534911;76;1089;-71
2022/01/17 10:31:02;;;;;;;;;;;23.70;44.80;;;;;;1532612;75;1464;-69
2022/01/17 10:35:12;;;;;;;;;;;23.70;44.90;;;;;;1463289;80;951;-71
2022/01/17 10:37:14;;;;;;;;;;;23.80;44.90;;;;;;1466693;80;1946;-69
2022/01/17 10:39:16;;;;;;;;;;;23.80;44.90;;;;;;1458117;80;1186;-68
2022/01/17 10:41:19;;;;;;;;;;;23.90;45.10;;;;;;1530335;76;923;-69
2022/01/17 10:43:25;;;;;;;;;;;23.80;45.00;;;;;;1542965;75;1784;-71
2022/01/17 10:45:33;;;;;;;;;;;23.90;45.10;;;;;;1524734;75;1020;-70
2022/01/17 10:47:31;;;;;;;;;;;23.90;45.00;;;;;;1545158;76;1497;-68
2022/01/17 10:49:49;;;;;;;;;;;23.90;45.00;;;;;;1539548;76;1123;-69
2022/01/17 10:51:53;;;;;;;;;;;23.90;45.10;;;;;;1527900;76;1648;-70
2022/01/17 10:53:55;;;;;;;;;;;24.00;45.10;;;;;;1533715;76;950;-68
2022/01/17 10:55:58;;;;;;;;;;;24.00;45.10;;;;;;1536503;76;699;-68
2022/01/17 10:58:02;;;;;;;;;;;24.00;45.10;;;;;;1529408;76;1983;-68
2022/01/17 11:00:06;;;;;;;;;;;24.00;45.10;;;;;;1538450;76;1190;-66
2022/01/17 11:02:09;;;;;;;;;;;24.00;45.10;;;;;;1536362;76;724;-68
2022/01/17 11:04:11;;;;;;;;;;;24.00;45.10;;;;;;1530191;76;719;-70
2022/01/17 11:06:14;;;;;;;;;;;24.00;45.10;;;;;;1537757;76;738;-71
2022/01/17 11:08:16;;;;;;;;;;;24.10;45.20;;;;;;1528409;76;1130;-71
2022/01/17 11:10:29;;;;;;;;;;;24.20;45.20;;;;;;1533397;76;735;-71
2022/01/17 11:12:31;;;;;;;;;;;24.10;45.10;;;;;;1534407;76;718;-71
2022/01/17 11:14:34;;;;;;;;;;;24.10;45.20;;;;;;1536963;76;718;-70
2022/01/17 11:16:37;;;;;;;;;;;24.20;45.20;;;;;;1549663;76;1172;-69
2022/01/17 11:18:41;;;;;;;;;;;24.10;45.20;;;;;;1539708;76;1912;-69
2022/01/17 11:20:43;;;;;;;;;;;24.10;45.20;;;;;;1553526;76;2000;-70
2022/01/17 11:22:45;;;;;;;;;;;24.10;45.20;;;;;;1538036;76;701;-70
2022/01/17 11:24:47;;;;;;;;;;;24.20;45.40;;;;;;1540278;76;686;-68
2022/01/17 11:26:49;;;;;;;;;;;24.10;45.40;;;;;;1528644;76;1061;-70
2022/01/17 11:28:54;;;;;;;;;;;24.10;45.50;;;;;;1533602;76;1183;-73
2022/01/17 11:30:55;;;;;;;;;;;24.00;45.40;;;;;;1532476;76;1617;-70
2022/01/17 11:32:58;;;;;;;;;;;24.10;45.50;;;;;;1541698;76;787;-70
2022/01/17 11:35:01;;;;;;;;;;;24.00;45.50;;;;;;1539319;76;730;-70
2022/01/17 11:37:03;;;;;;;;;;;24.00;45.50;;;;;;1538161;76;1906;-70
2022/01/17 11:39:07;;;;;;;;;;;24.00;45.50;;;;;;1546775;76;1146;-70
2022/01/17 11:41:22;;;;;;;;;;;24.10;45.70;;;;;;1531332;76;967;-67
2022/01/17 11:43:34;;;;;;;;;;;24.20;45.60;;;;;;1533878;76;720;-68
2022/01/17 11:45:37;;;;;;;;;;;24.10;45.60;;;;;;1537721;76;694;-69
2022/01/17 11:47:57;;;;;;;;;;;24.20;45.60;;;;;;1538122;76;716;-70
2022/01/17 11:50:00;;;;;;;;;;;24.20;45.50;;;;;;1526165;76;1152;-70
2022/01/17 11:52:07;;;;;;;;;;;24.20;45.40;;;;;;1525867;77;984;-69
2022/01/17 11:54:10;;;;;;;;;;;24.30;45.50;;;;;;1543952;76;1619;-70
2022/01/17 11:56:13;;;;;;;;;;;24.30;45.40;;;;;;1532103;76;792;-68
2022/01/17 11:58:22;;;;;;;;;;;24.30;45.40;;;;;;1544898;76;1941;-68
2022/01/17 12:00:30;;;;;;;;;;;24.30;45.40;;;;;;1539125;76;689;-71
2022/01/17 12:02:33;;;;;;;;;;;24.30;45.30;;;;;;1532866;76;719;-68
2022/01/17 12:04:35;;;;;;;;;;;24.30;45.30;;;;;;1508499;77;699;-69
2022/01/17 12:06:37;;;;;;;;;;;24.40;45.40;;;;;;1568210;75;739;-70
2022/01/17 12:08:39;;;;;;;;;;;24.40;45.30;;;;;;1556035;75;1148;-71
2022/01/17 12:10:42;;;;;;;;;;;24.40;45.30;;;;;;1526866;76;726;-68
2022/01/17 12:12:44;;;;;;;;;;;24.40;45.20;;;;;;1538681;76;689;-69
2022/01/17 12:14:55;;;;;;;;;;;24.40;45.30;;;;;;1529064;76;898;-68
2022/01/17 12:16:57;;;;;;;;;;;24.30;45.30;;;;;;1543141;76;1722;-70
2022/01/17 12:19:02;;;;;;;;;;;24.30;45.30;;;;;;1540947;75;1956;-70
2022/01/17 12:21:24;;;;;;;;;;;24.30;45.40;;;;;;1554883;75;732;-69
2022/01/17 12:23:26;;;;;;;;;;;24.30;45.40;;;;;;1545895;76;725;-70
2022/01/17 12:25:31;;;;;;;;;;;24.30;45.50;;;;;;1528359;76;798;-70
2022/01/17 12:27:34;;;;;;;;;;;24.20;45.50;;;;;;1546116;75;676;-67